Time;durP1;ratioP1;P1;durP2;ratioP2;P2;SDS_P1;SDS_P2;PMS_P1;PMS_P2;Temp;Humidity;BMP_temperature;BMP_pressure;BME280_temperature;BME280_humidity;BME280_pressure;Samples;Min_cycle;Max_cycle;Signal;HPM_P1;HPM_P2
2021/12/25 00:01:28;;;;;;;11.45;5.90;;;;;;;20.27;46.43;95615.59;10405206;28;20060;-50
2021/12/25 00:06:47;;;;;;;11.55;5.43;;;;;;;20.27;46.42;95622.94;10390674;28;20402;-50
2021/12/25 00:12:08;;;;;;;9.85;5.13;;;;;;;20.25;46.48;95628.69;10363539;28;20099;-52
2021/12/25 00:17:27;;;;;;;10.57;5.30;;;;;;;20.23;46.61;95636.38;10363882;28;20421;-50
2021/12/25 00:22:47;;;;;;;8.80;5.03;;;;;;;20.22;46.65;95637.50;10363598;28;20057;-51
2021/12/25 00:39:04;;;;;;;9.00;4.93;;;;;;;20.18;46.45;95639.34;10363216;28;19925;-50
2021/12/25 00:44:24;;;;;;;7.80;4.63;;;;;;;20.15;46.54;95623.88;10362034;28;20104;-49
2021/12/25 00:49:44;;;;;;;10.15;4.68;;;;;;;20.15;46.45;95637.38;10376344;28;20465;-52
2021/12/25 00:55:06;;;;;;;8.07;4.43;;;;;;;20.12;46.44;95644.25;10376826;28;20654;-51
2021/12/25 01:00:26;;;;;;;8.38;4.47;;;;;;;20.10;46.54;95641.13;10374123;28;20042;-52
2021/12/25 01:05:46;;;;;;;7.40;4.18;;;;;;;20.10;46.39;95653.88;10379878;28;20053;-50
2021/12/25 01:11:07;;;;;;;7.35;4.43;;;;;;;20.08;46.51;95661.56;10386469;28;20046;-50
2021/12/25 01:50:45;;;;;;;7.15;3.60;;;;;;;19.98;46.16;95713.50;10357835;28;20552;-50
2021/12/25 01:56:06;;;;;;;5.88;3.90;;;;;;;19.95;46.33;95710.34;10374836;28;20133;-49
2021/12/25 02:01:26;;;;;;;4.70;3.35;;;;;;;19.94;46.26;95708.78;10353729;28;20054;-50
2021/12/25 02:06:46;;;;;;;6.05;3.53;;;;;;;19.92;46.17;95702.94;10368535;28;20608;-50
2021/12/25 02:12:07;;;;;;;5.28;3.50;;;;;;;19.91;46.08;95703.28;10326404;28;20049;-49
2021/12/25 02:17:36;;;;;;;8.02;3.63;;;;;;;19.90;46.15;95732.25;10352550;28;20046;-52
2021/12/25 02:23:02;;;;;;;7.18;3.05;;;;;;;19.88;46.11;95733.75;10353549;28;20120;-50
2021/12/25 02:28:22;;;;;;;6.22;3.30;;;;;;;19.87;46.02;95729.47;10352198;28;20038;-53
2021/12/25 02:33:43;;;;;;;5.63;2.90;;;;;;;19.85;45.92;95720.91;10376078;28;20042;-50
2021/12/25 02:39:03;;;;;;;5.35;3.13;;;;;;;19.84;46.06;95709.34;10351733;28;20477;-52
2021/12/25 02:44:22;;;;;;;4.10;2.75;;;;;;;19.82;45.90;95708.13;10330802;28;20050;-51
2021/12/25 02:49:50;;;;;;;5.50;2.90;;;;;;;19.81;45.82;95726.22;10352258;28;20054;-50
2021/12/25 02:55:09;;;;;;;5.25;3.13;;;;;;;19.79;45.96;95735.84;10352046;28;20045;-49
2021/12/25 03:00:37;;;;;;;4.85;3.20;;;;;;;19.77;45.78;95741.59;10379377;28;20053;-50
2021/12/25 03:05:57;;;;;;;4.72;2.90;;;;;;;19.77;45.82;95748.91;10366097;28;20077;-50
2021/12/25 03:11:17;;;;;;;4.03;2.65;;;;;;;19.75;45.86;95757.38;10379374;28;20045;-49
2021/12/25 03:16:38;;;;;;;5.50;2.92;;;;;;;19.73;45.93;95751.53;10366071;28;20038;-53
2021/12/25 03:22:02;;;;;;;3.85;2.80;;;;;;;19.73;45.90;95738.78;10366290;28;20096;-49
2021/12/25 03:27:22;;;;;;;5.00;2.78;;;;;;;19.70;45.83;95755.69;10363687;28;20053;-50
2021/12/25 03:32:42;;;;;;;4.95;2.65;;;;;;;19.69;45.83;95750.63;10350843;28;20054;-50
2021/12/25 03:38:04;;;;;;;3.40;2.60;;;;;;;19.68;46.00;95751.75;10364154;28;20053;-52
2021/12/25 03:43:24;;;;;;;4.55;2.70;;;;;;;19.67;45.88;95758.31;10356904;28;20092;-50
2021/12/25 03:59:58;;;;;;;2.92;2.40;;;;;;;19.63;45.99;95765.56;10362883;28;20065;-49
2021/12/25 04:05:20;;;;;;;3.72;2.67;;;;;;;19.62;45.84;95766.66;10362448;28;20053;-50
2021/12/25 04:10:42;;;;;;;3.63;2.20;;;;;;;19.60;45.82;95763.53;10348118;28;20136;-50
2021/12/25 04:16:02;;;;;;;3.85;2.33;;;;;;;19.59;45.78;95770.09;10376308;28;20049;-51
2021/12/25 04:21:23;;;;;;;3.60;2.50;;;;;;;19.55;45.70;95768.06;10347124;28;20053;-50
2021/12/25 04:26:45;;;;;;;5.07;2.50;;;;;;;19.55;45.61;95781.56;10308464;28;20050;-53
2021/12/25 04:32:41;;;;;;;3.60;2.10;;;;;;;19.54;45.66;95790.84;10340826;28;20528;-50
2021/12/25 04:49:43;;;;;;;5.40;2.60;;;;;;;19.50;45.61;95797.25;10348170;28;20060;-50
2021/12/25 05:06:23;;;;;;;2.70;1.95;;;;;;;19.43;45.52;95811.38;10362396;28;20058;-49
2021/12/25 05:11:43;;;;;;;2.10;1.80;;;;;;;19.42;45.39;95817.91;10346934;28;20053;-50
2021/12/25 05:17:05;;;;;;;4.00;2.10;;;;;;;19.42;45.40;95823.28;10360091;28;20433;-50
2021/12/25 05:22:26;;;;;;;3.00;2.03;;;;;;;19.40;45.57;95816.69;10359968;28;20038;-50
2021/12/25 05:27:46;;;;;;;2.95;1.92;;;;;;;19.38;45.54;95822.41;10350021;28;20083;-50
2021/12/25 05:33:06;;;;;;;2.80;2.10;;;;;;;19.37;45.52;95818.16;10337562;28;20050;-51
2021/12/25 05:38:49;;;;;;;2.58;1.85;;;;;;;19.35;45.56;95823.13;10336682;28;20054;-50
2021/12/25 05:44:18;;;;;;;1.98;1.70;;;;;;;19.33;45.54;95818.06;10351023;28;20072;-53
2021/12/25 05:49:45;;;;;;;2.00;1.70;;;;;;;19.33;45.59;95825.41;10362075;28;20046;-50
2021/12/25 05:55:32;;;;;;;3.58;1.70;;;;;;;19.31;45.47;95833.06;10352553;28;20386;-49
2021/12/25 06:00:52;;;;;;;2.53;1.90;;;;;;;19.29;45.48;95830.69;10368444;28;20545;-50
2021/12/25 06:06:12;;;;;;;2.38;1.80;;;;;;;19.28;45.54;95831.03;10353556;28;20050;-50
2021/12/25 06:11:32;;;;;;;1.77;1.67;;;;;;;19.26;45.45;95836.78;10353781;28;20080;-50
2021/12/25 06:16:52;;;;;;;2.42;1.80;;;;;;;19.26;45.46;95846.81;10352716;28;20477;-51
2021/12/25 06:22:25;;;;;;;2.13;1.60;;;;;;;19.24;45.49;95849.84;10353391;28;20611;-49
2021/12/25 06:28:00;;;;;;;2.08;1.55;;;;;;;19.24;45.56;95873.38;10352626;28;20092;-50
2021/12/25 06:33:25;;;;;;;2.30;1.63;;;;;;;19.21;45.60;95882.13;10367897;28;20061;-49
2021/12/25 06:39:04;;;;;;;1.97;1.50;;;;;;;19.21;45.58;95879.44;10366889;28;20033;-49
2021/12/25 06:44:47;;;;;;;2.08;1.52;;;;;;;19.19;45.29;95895.19;10365565;28;20061;-50
2021/12/25 06:50:08;;;;;;;2.90;1.85;;;;;;;19.17;45.48;95884.75;10366661;28;20049;-50
2021/12/25 06:55:47;;;;;;;1.73;1.63;;;;;;;19.16;45.41;95867.75;10379797;28;20041;-52
2021/12/25 07:01:14;;;;;;;3.22;1.60;;;;;;;19.13;45.43;95873.88;10350429;28;20064;-51
2021/12/25 07:06:35;;;;;;;2.80;1.83;;;;;;;19.13;45.61;95870.34;10360612;28;20080;-50
2021/12/25 07:12:23;;;;;;;2.13;1.70;;;;;;;19.14;45.38;95871.94;10310041;28;20065;-52
2021/12/25 07:18:06;;;;;;;3.38;1.40;;;;;;;19.13;45.25;95875.75;10324680;28;20054;-49
2021/12/25 07:23:49;;;;;;;2.05;1.63;;;;;;;19.11;45.29;95880.72;10345185;28;20066;-49
2021/12/25 07:29:17;;;;;;;1.80;1.40;;;;;;;19.11;45.38;95891.50;10336900;28;20049;-49
2021/12/25 07:34:37;;;;;;;1.52;1.33;;;;;;;19.11;45.33;95889.63;10376278;28;20061;-49
2021/12/25 07:39:56;;;;;;;1.45;1.30;;;;;;;19.10;45.26;95896.13;10361629;28;20046;-50
2021/12/25 07:45:16;;;;;;;1.42;1.27;;;;;;;19.11;45.28;95919.31;10365238;28;20104;-49
2021/12/25 07:50:35;;;;;;;1.85;1.20;;;;;;;19.12;45.28;95912.78;10364591;28;20421;-50
2021/12/25 07:55:55;;;;;;;1.40;1.10;;;;;;;19.13;45.34;95908.97;10364161;28;20058;-50
2021/12/25 08:01:14;;;;;;;1.30;1.20;;;;;;;19.14;45.00;95913.22;10349577;28;20500;-50
2021/12/25 08:06:34;;;;;;;1.65;1.38;;;;;;;19.19;45.11;95930.28;10359409;28;20065;-50
2021/12/25 08:12:00;;;;;;;1.95;1.50;;;;;;;19.20;45.32;95921.84;10366307;28;20038;-50
2021/12/25 08:17:19;;;;;;;1.38;1.25;;;;;;;19.23;45.71;95936.59;10361759;28;20046;-50
2021/12/25 08:22:57;;;;;;;3.03;1.30;;;;;;;19.24;45.87;95933.53;10336637;28;20054;-53
2021/12/25 08:28:36;;;;;;;2.10;1.33;;;;;;;19.30;45.99;95939.50;10352272;28;20062;-50
2021/12/25 08:34:15;;;;;;;1.58;1.30;;;;;;;19.33;46.14;95936.91;10354453;28;20697;-53
2021/12/25 08:39:38;;;;;;;2.75;1.02;;;;;;;19.37;46.40;95942.41;10351210;28;20064;-53
2021/12/25 08:50:17;;;;;;;1.60;1.10;;;;;;;19.45;46.81;95948.78;10351890;28;20054;-51
2021/12/25 08:55:37;;;;;;;2.13;1.20;;;;;;;19.50;47.13;95952.03;10352126;28;20532;-52
2021/12/25 09:01:00;;;;;;;2.17;1.20;;;;;;;19.55;46.89;95948.28;10351505;28;20062;-50
2021/12/25 09:06:20;;;;;;;2.33;1.00;;;;;;;19.61;46.74;95963.13;10357504;28;20061;-49
2021/12/25 09:11:41;;;;;;;1.30;1.20;;;;;;;19.67;46.37;95956.34;10374676;28;20397;-49
2021/12/25 09:17:00;;;;;;;3.08;1.20;;;;;;;19.71;46.28;95964.53;10396931;28;20042;-51
2021/12/25 09:22:20;;;;;;;2.38;1.77;;;;;;;19.70;37.67;95952.97;10381077;28;20045;-49
2021/12/25 09:27:39;;;;;;;2.08;1.17;;;;;;;19.69;42.78;95953.28;10359664;28;20521;-50
2021/12/25 09:32:59;;;;;;;3.53;1.17;;;;;;;19.75;43.48;95946.53;10376056;28;20060;-50
2021/12/25 09:38:18;;;;;;;6.70;1.55;;;;;;;19.81;43.65;95947.84;10398324;28;20045;-50
2021/12/25 09:43:39;;;;;;;2.22;1.20;;;;;;;19.86;43.66;95968.44;10370811;28;20054;-49
2021/12/25 09:48:59;;;;;;;2.95;1.65;;;;;;;19.81;36.88;95974.09;10362781;28;20111;-50
2021/12/25 09:54:19;;;;;;;9.77;2.95;;;;;;;19.35;34.66;95971.66;10355226;28;20064;-50
2021/12/25 09:59:38;;;;;;;5.72;1.73;;;;;;;19.51;40.12;95977.91;10363859;28;20057;-50
2021/12/25 10:04:58;;;;;;;4.22;2.20;;;;;;;19.66;40.25;95970.19;10365184;28;20054;-49
2021/12/25 10:10:17;;;;;;;6.68;2.35;;;;;;;19.77;40.20;95970.53;10363943;28;20072;-49
2021/12/25 10:15:37;;;;;;;6.47;2.22;;;;;;;19.83;40.46;95975.31;10364737;28;20050;-49
2021/12/25 10:20:57;;;;;;;4.60;2.03;;;;;;;19.90;40.61;95963.91;10380120;28;20494;-49
2021/12/25 10:26:23;;;;;;;6.03;2.20;;;;;;;19.95;40.66;95963.66;10367441;28;20070;-49
2021/12/25 10:31:42;;;;;;;5.63;2.13;;;;;;;20.00;40.82;95959.94;10366666;28;20056;-50
2021/12/25 10:37:11;;;;;;;4.47;1.80;;;;;;;20.05;41.06;95960.47;10327289;28;20108;-49
2021/12/25 10:42:33;;;;;;;4.80;2.10;;;;;;;20.09;40.98;95963.22;10364078;28;20061;-51
2021/12/25 10:48:08;;;;;;;4.40;1.88;;;;;;;20.13;41.28;95950.59;10366849;28;20050;-50
2021/12/25 10:53:41;;;;;;;5.80;1.85;;;;;;;20.18;41.16;95958.44;10366476;28;20589;-51
2021/12/25 10:59:07;;;;;;;5.63;1.80;;;;;;;20.21;41.29;95952.34;10366642;28;20073;-49
2021/12/25 11:04:35;;;;;;;5.47;2.20;;;;;;;20.26;41.48;95952.06;10363091;28;20046;-50
2021/12/25 11:10:05;;;;;;;4.43;1.90;;;;;;;20.30;41.42;95952.16;10366054;28;20056;-50
2021/12/25 11:15:27;;;;;;;5.20;2.08;;;;;;;20.33;41.56;95954.97;10364672;28;20054;-49
2021/12/25 11:20:47;;;;;;;2.90;1.50;;;;;;;20.39;41.54;95965.53;10366511;28;20058;-51
2021/12/25 11:26:07;;;;;;;3.00;1.60;;;;;;;20.43;41.60;95963.69;10378787;28;20408;-49
2021/12/25 11:31:26;;;;;;;2.97;1.60;;;;;;;20.45;41.70;95959.50;10377749;28;20513;-50
2021/12/25 11:36:48;;;;;;;2.10;1.50;;;;;;;20.50;41.62;95947.63;10378362;28;20049;-50
2021/12/25 11:42:10;;;;;;;2.72;1.45;;;;;;;20.56;41.78;95954.31;10379097;28;20042;-50
2021/12/25 11:47:38;;;;;;;3.75;1.73;;;;;;;20.59;41.50;95956.38;10363238;28;20099;-51
2021/12/25 11:53:31;;;;;;;3.00;1.63;;;;;;;20.61;41.67;95943.28;10324689;28;20058;-50
2021/12/25 11:58:54;;;;;;;2.30;1.65;;;;;;;20.65;41.58;95965.78;10357348;28;20076;-49
2021/12/25 12:04:17;;;;;;;3.15;1.60;;;;;;;20.67;41.63;95943.78;10364009;28;20617;-52
2021/12/25 12:09:46;;;;;;;2.95;1.67;;;;;;;20.68;41.68;95946.16;10343439;28;20059;-49
2021/12/25 12:15:14;;;;;;;3.72;1.67;;;;;;;20.70;41.58;95949.28;10363698;28;20038;-50
2021/12/25 12:21:07;;;;;;;2.45;1.40;;;;;;;20.71;41.62;95953.56;10363431;28;21837;-50
2021/12/25 12:26:45;;;;;;;1.88;1.52;;;;;;;20.72;41.57;95963.25;10351899;28;20080;-50
2021/12/25 12:32:06;;;;;;;2.97;1.30;;;;;;;20.73;41.62;95956.69;10351173;28;20656;-50
2021/12/25 12:37:31;;;;;;;2.97;1.80;;;;;;;20.73;41.66;95953.97;10376061;28;20060;-50
2021/12/25 12:42:55;;;;;;;3.08;1.50;;;;;;;20.73;41.70;95967.53;10376005;28;20046;-49
2021/12/25 12:48:19;;;;;;;2.40;1.48;;;;;;;20.75;41.65;95980.72;10362399;28;20057;-50
2021/12/25 12:53:38;;;;;;;1.65;1.30;;;;;;;20.74;41.68;95993.47;10324573;28;20477;-50
2021/12/25 12:58:58;;;;;;;1.90;1.35;;;;;;;20.74;41.69;95985.34;10362627;28;20058;-49
2021/12/25 13:04:18;;;;;;;3.13;1.60;;;;;;;20.75;41.71;95994.25;10362516;28;20575;-49
2021/12/25 13:09:42;;;;;;;3.38;1.60;;;;;;;20.75;41.72;96002.34;10362821;28;20428;-51
2021/12/25 13:15:15;;;;;;;2.13;1.30;;;;;;;20.76;41.72;95997.72;10362156;28;20116;-50
2021/12/25 13:20:50;;;;;;;3.10;1.40;;;;;;;20.74;41.77;96004.28;10375186;28;20057;-49
2021/12/25 13:26:10;;;;;;;1.95;1.30;;;;;;;20.74;41.79;96003.50;10374929;28;20042;-51
2021/12/25 13:31:32;;;;;;;1.58;1.17;;;;;;;20.73;41.62;96010.81;10362120;28;20061;-49
2021/12/25 13:36:54;;;;;;;1.77;1.20;;;;;;;20.72;41.80;96027.44;10375014;28;20037;-51
2021/12/25 13:42:16;;;;;;;2.25;1.23;;;;;;;20.72;41.67;96030.16;10362256;28;20049;-49
2021/12/25 13:47:38;;;;;;;1.40;1.10;;;;;;;20.71;41.77;96032.03;10361206;28;20100;-50
2021/12/25 13:52:58;;;;;;;2.08;1.20;;;;;;;20.70;41.72;96054.84;10375605;28;20046;-49
2021/12/25 13:58:18;;;;;;;1.13;0.95;;;;;;;20.70;41.75;96065.66;10368294;28;20104;-49
2021/12/25 14:03:37;;;;;;;2.25;1.23;;;;;;;20.68;41.77;96046.28;10368319;28;20049;-50
2021/12/25 14:08:57;;;;;;;2.30;1.40;;;;;;;20.68;41.78;96050.91;10368587;28;20616;-50
2021/12/25 14:14:18;;;;;;;1.60;1.10;;;;;;;20.67;41.75;96063.66;10368745;28;20413;-51
2021/12/25 14:19:39;;;;;;;1.42;1.20;;;;;;;20.64;41.80;96067.06;10365996;28;20099;-50
2021/12/25 14:24:58;;;;;;;1.25;0.93;;;;;;;20.63;41.73;96070.91;10381474;28;20054;-49
2021/12/25 14:30:18;;;;;;;2.45;1.20;;;;;;;20.63;41.73;96067.41;10367617;28;20057;-50
2021/12/25 14:35:38;;;;;;;1.17;1.00;;;;;;;20.62;41.71;96082.06;10367661;28;20109;-50
2021/12/25 14:40:57;;;;;;;1.73;1.20;;;;;;;20.61;41.73;96108.34;10367131;28;20046;-49
2021/12/25 14:46:19;;;;;;;1.70;1.15;;;;;;;20.60;41.57;96103.28;10380846;28;20042;-53
2021/12/25 14:51:39;;;;;;;1.65;1.23;;;;;;;20.58;41.85;96111.75;10380663;28;20045;-50
2021/12/25 14:56:59;;;;;;;1.50;1.00;;;;;;;20.57;41.79;96118.28;10367052;28;20049;-53
2021/12/25 15:02:21;;;;;;;1.98;1.23;;;;;;;20.57;41.83;96104.75;10366927;28;20113;-50
2021/12/25 15:07:40;;;;;;;1.63;1.17;;;;;;;20.54;41.84;96102.72;10365743;28;20695;-51
2021/12/25 15:13:12;;;;;;;1.40;1.20;;;;;;;20.53;41.78;96111.97;10366407;28;20061;-50
2021/12/25 15:18:34;;;;;;;2.13;1.00;;;;;;;20.50;41.71;96116.19;10365420;28;20057;-49
2021/12/25 15:24:13;;;;;;;1.10;0.90;;;;;;;20.51;41.79;96116.94;10350914;28;20108;-50
2021/12/25 15:29:41;;;;;;;1.48;1.00;;;;;;;20.48;41.71;96129.25;10378768;28;20095;-50
2021/12/25 15:35:06;;;;;;;1.70;0.90;;;;;;;20.47;41.73;96130.38;10340961;28;20030;-51
2021/12/25 15:40:31;;;;;;;1.48;1.00;;;;;;;20.44;41.86;96135.69;10365413;28;20049;-49
2021/12/25 15:45:50;;;;;;;0.93;0.80;;;;;;;20.43;41.69;96131.44;10364604;28;20046;-52
2021/12/25 15:51:12;;;;;;;1.85;1.10;;;;;;;20.41;41.77;96131.00;10364059;28;20505;-50
2021/12/25 15:56:32;;;;;;;1.73;1.10;;;;;;;20.39;41.82;96135.97;10324071;28;20054;-51
2021/12/25 16:01:52;;;;;;;1.13;1.00;;;;;;;20.38;41.78;96139.78;10334443;28;20050;-50
2021/12/25 16:07:11;;;;;;;1.20;1.10;;;;;;;20.35;41.69;96158.28;10364184;28;20674;-50
2021/12/25 16:12:31;;;;;;;1.50;1.20;;;;;;;20.33;41.81;96171.38;10364185;28;20058;-50
2021/12/25 16:17:50;;;;;;;1.58;1.10;;;;;;;20.32;41.77;96174.41;10376227;28;20056;-49
2021/12/25 16:23:10;;;;;;;1.85;1.30;;;;;;;20.30;41.80;96174.75;10349065;28;20053;-49
2021/12/25 16:28:31;;;;;;;1.52;1.33;;;;;;;20.28;41.87;96184.34;10364494;28;20084;-49
2021/12/25 16:33:51;;;;;;;1.00;0.90;;;;;;;20.26;41.74;96192.78;10363323;28;20054;-50
2021/12/25 16:39:14;;;;;;;1.13;0.90;;;;;;;20.25;41.86;96180.41;10376305;28;20049;-51
2021/12/25 16:44:34;;;;;;;1.08;0.95;;;;;;;20.23;41.84;96193.50;10336355;28;20053;-50
2021/12/25 16:49:54;;;;;;;1.35;1.08;;;;;;;20.21;41.75;96195.75;10356775;28;20049;-50
2021/12/25 16:55:15;;;;;;;1.23;1.00;;;;;;;20.20;41.80;96204.97;10362627;28;20069;-50
2021/12/25 17:00:38;;;;;;;1.65;1.20;;;;;;;20.17;41.82;96213.81;10376087;28;20125;-50
2021/12/25 17:05:58;;;;;;;1.05;0.95;;;;;;;20.15;41.71;96214.13;10371907;28;20064;-50
2021/12/25 17:11:17;;;;;;;1.40;1.02;;;;;;;20.15;41.83;96213.34;10362989;28;20057;-51
2021/12/25 17:16:37;;;;;;;1.10;1.00;;;;;;;20.12;41.74;96200.50;10362162;28;20062;-50
2021/12/25 17:21:57;;;;;;;1.10;1.00;;;;;;;20.10;41.84;96202.78;10363244;28;20058;-50
2021/12/25 17:27:16;;;;;;;1.10;1.00;;;;;;;20.08;41.87;96195.00;10363113;28;20076;-50
2021/12/25 17:32:35;;;;;;;1.27;1.08;;;;;;;20.05;41.78;96198.41;10369875;28;20096;-50
2021/12/25 17:37:56;;;;;;;1.10;0.98;;;;;;;20.05;42.00;96203.00;10370220;28;20045;-49
2021/12/25 17:43:16;;;;;;;1.00;0.90;;;;;;;20.02;41.83;96199.06;10368386;28;20048;-50
2021/12/25 17:48:37;;;;;;;1.13;0.95;;;;;;;20.01;42.02;96207.50;10381937;28;20045;-49
2021/12/25 17:53:57;;;;;;;1.60;1.00;;;;;;;20.01;42.09;96212.91;10337802;28;20070;-50
2021/12/25 17:59:16;;;;;;;0.90;0.90;;;;;;;19.99;41.90;96215.97;10363693;28;20433;-49
2021/12/25 18:04:36;;;;;;;1.50;1.00;;;;;;;19.99;41.91;96220.59;10369207;28;20148;-49
2021/12/25 18:09:55;;;;;;;1.10;1.00;;;;;;;19.99;41.81;96228.69;10367982;28;20057;-49
2021/12/25 18:15:17;;;;;;;1.08;1.00;;;;;;;20.00;41.90;96243.81;10361582;28;20076;-50
2021/12/25 18:20:40;;;;;;;1.15;1.02;;;;;;;19.96;40.29;96243.69;10365356;28;20060;-49
2021/12/25 18:25:59;;;;;;;1.90;1.60;;;;;;;19.99;40.96;96248.41;10360716;28;20050;-51
2021/12/25 18:31:23;;;;;;;30.38;9.38;;;;;;;20.02;40.95;96236.13;10362020;28;20489;-49
2021/12/25 18:36:43;;;;;;;36.75;12.20;;;;;;;20.05;41.26;96240.84;10370163;28;20049;-50
2021/12/25 18:42:03;;;;;;;17.17;6.78;;;;;;;20.01;36.66;96245.38;10373310;28;20037;-52
2021/12/25 18:47:23;;;;;;;21.02;5.97;;;;;;;19.69;34.80;96245.13;10359202;28;20732;-49
2021/12/25 18:52:43;;;;;;;19.00;7.93;;;;;;;19.82;38.08;96241.34;10353313;28;20100;-54
2021/12/25 18:58:06;;;;;;;17.92;7.45;;;;;;;19.98;38.98;96256.88;10357991;28;20034;-50
2021/12/25 19:03:26;;;;;;;17.95;6.60;;;;;;;20.06;40.12;96267.56;10328995;28;20550;-50
2021/12/25 19:08:46;;;;;;;14.55;6.20;;;;;;;20.15;41.60;96273.63;10327463;28;20548;-50
2021/12/25 19:14:05;;;;;;;14.13;5.57;;;;;;;20.23;42.98;96282.75;10355406;28;20060;-61
2021/12/25 19:19:25;;;;;;;12.65;5.85;;;;;;;20.27;43.54;96280.16;10368696;28;20045;-55
2021/12/25 19:24:45;;;;;;;13.85;5.30;;;;;;;20.31;43.87;96276.41;10360702;28;20686;-53
2021/12/25 19:30:09;;;;;;;16.27;4.60;;;;;;;20.35;43.67;96276.53;10325063;28;20128;-52
2021/12/25 19:35:29;;;;;;;11.95;4.30;;;;;;;20.38;43.69;96269.63;10368341;28;20476;-52
2021/12/25 19:40:51;;;;;;;9.18;3.70;;;;;;;20.40;43.70;96275.50;10365022;28;20116;-52
2021/12/25 19:46:11;;;;;;;8.32;3.85;;;;;;;20.42;44.17;96273.22;10371413;28;20042;-53
2021/12/25 19:51:32;;;;;;;8.73;3.78;;;;;;;20.42;44.29;96273.22;10346914;28;20613;-51
2021/12/25 19:56:51;;;;;;;9.98;4.10;;;;;;;20.42;44.35;96284.06;10347622;28;20061;-50
2021/12/25 20:02:11;;;;;;;6.95;3.70;;;;;;;20.44;44.41;96276.38;10340170;28;20084;-51
2021/12/25 20:07:32;;;;;;;6.13;3.50;;;;;;;20.44;44.61;96289.91;10350248;28;20132;-50
2021/12/25 20:12:52;;;;;;;8.43;3.45;;;;;;;20.44;44.63;96289.91;10357037;28;20060;-50
2021/12/25 20:18:13;;;;;;;7.10;3.35;;;;;;;20.44;44.85;96287.19;10359098;28;20065;-50
2021/12/25 20:23:34;;;;;;;6.13;3.40;;;;;;;20.45;44.88;96286.09;10351616;28;20513;-50
2021/12/25 20:28:55;;;;;;;8.10;3.20;;;;;;;20.46;44.84;96284.94;10365016;28;20042;-54
2021/12/25 20:34:14;;;;;;;8.77;3.45;;;;;;;20.47;44.81;96283.81;10357933;28;20062;-52
2021/12/25 20:39:34;;;;;;;9.80;3.45;;;;;;;20.47;44.84;96295.44;10356985;28;20107;-54
2021/12/25 20:50:41;;;;;;;7.57;3.20;;;;;;;20.47;44.96;96294.66;10339966;28;20052;-53
2021/12/25 20:56:01;;;;;;;8.05;3.28;;;;;;;20.44;44.97;96290.69;10371536;28;20041;-52
2021/12/25 21:01:21;;;;;;;6.95;3.30;;;;;;;20.45;44.62;96286.88;10360148;28;20052;-51
2021/12/25 21:06:41;;;;;;;9.05;3.35;;;;;;;20.45;44.53;96276.03;10368696;28;20698;-51
2021/12/25 21:12:02;;;;;;;8.00;3.20;;;;;;;20.46;44.74;96272.19;10349522;28;20049;-54
2021/12/25 21:17:24;;;;;;;7.90;2.83;;;;;;;20.46;44.82;96266.00;10356937;28;20041;-57
2021/12/25 21:22:44;;;;;;;4.95;2.95;;;;;;;20.45;45.06;96283.38;10363802;28;20512;-58
2021/12/25 21:28:04;;;;;;;6.13;2.75;;;;;;;20.43;45.03;96289.13;10362719;28;20042;-61
2021/12/25 21:33:25;;;;;;;5.47;2.72;;;;;;;20.42;44.97;96284.84;10362744;28;20046;-52
2021/12/25 21:38:45;;;;;;;7.03;3.13;;;;;;;20.42;44.73;96294.88;10362956;28;20064;-61
2021/12/25 21:44:05;;;;;;;7.80;3.17;;;;;;;20.43;45.02;96296.47;10380292;28;20041;-50
2021/12/25 21:49:24;;;;;;;7.28;3.70;;;;;;;20.42;45.04;96303.00;10357078;28;20042;-58
2021/12/25 21:54:44;;;;;;;5.22;3.30;;;;;;;20.41;45.15;96312.25;10367444;28;20045;-58
2021/12/25 22:00:07;;;;;;;5.95;3.30;;;;;;;20.40;45.20;96313.38;10361323;28;20109;-54
2021/12/25 22:05:29;;;;;;;6.25;3.42;;;;;;;20.40;45.19;96310.66;10353355;28;20045;-54
2021/12/25 22:10:49;;;;;;;6.65;3.60;;;;;;;20.39;45.36;96309.88;10343533;28;20627;-54
2021/12/25 22:16:10;;;;;;;4.95;3.33;;;;;;;20.38;45.45;96310.22;10362768;28;20039;-54
2021/12/25 22:21:29;;;;;;;5.00;3.13;;;;;;;20.37;45.42;96317.56;10355437;28;20054;-53
2021/12/25 22:26:49;;;;;;;5.38;3.63;;;;;;;20.38;45.50;96312.91;10348812;28;20046;-52
2021/12/25 22:32:09;;;;;;;4.43;3.30;;;;;;;20.35;45.33;96326.00;10352626;28;20077;-50
2021/12/25 22:37:28;;;;;;;5.72;3.25;;;;;;;20.35;45.55;96323.28;10354014;28;20460;-52
2021/12/25 22:42:48;;;;;;;6.60;3.40;;;;;;;20.34;45.53;96307.41;10348263;28;20080;-51
2021/12/25 22:48:09;;;;;;;5.60;3.35;;;;;;;20.33;45.37;96303.13;10350075;28;20050;-51
2021/12/25 22:53:32;;;;;;;3.97;2.97;;;;;;;20.33;45.17;96297.72;10347651;28;20414;-53
2021/12/25 22:58:52;;;;;;;4.22;3.25;;;;;;;20.31;45.03;96297.28;10340939;28;20042;-51
2021/12/25 23:04:11;;;;;;;5.53;3.40;;;;;;;20.29;44.95;96286.78;10351702;28;20533;-50
2021/12/25 23:09:30;;;;;;;4.45;3.30;;;;;;;20.29;44.74;96300.31;10339296;28;20050;-54
2021/12/25 23:14:50;;;;;;;156.70;70.35;;;;;;;20.28;44.83;96293.31;10358826;28;20050;-54
2021/12/25 23:20:10;;;;;;;65.15;32.03;;;;;;;20.27;44.80;96290.97;10363837;28;20045;-50
2021/12/25 23:25:29;;;;;;;59.50;26.33;;;;;;;20.24;44.88;96289.72;10362002;28;20575;-51
2021/12/25 23:30:50;;;;;;;41.85;20.20;;;;;;;20.22;44.74;96278.44;10359908;28;20649;-50
2021/12/25 23:36:11;;;;;;;37.65;17.25;;;;;;;20.21;44.62;96289.59;10376387;28;20095;-50
2021/12/25 23:41:31;;;;;;;30.63;14.85;;;;;;;20.19;44.60;96291.88;10362186;28;20523;-51
2021/12/25 23:46:50;;;;;;;27.85;13.70;;;;;;;20.15;44.48;96284.44;10375189;28;20135;-50
2021/12/25 23:52:10;;;;;;;21.27;12.07;;;;;;;20.14;44.27;96287.50;10372268;28;20042;-52
2021/12/25 23:57:31;;;;;;;23.02;11.48;;;;;;;20.12;44.14;96281.63;10371987;28;20038;-51
